sensor_id;sensor_type;location;lat;lon;timestamp;temperature;humidity
32907;DHT22;19259;51.590;5.320;2022-08-04T00:01:44;23.70;99.90
32907;DHT22;19259;51.590;5.320;2022-08-04T00:04:23;23.60;99.90
32907;DHT22;19259;51.590;5.320;2022-08-04T00:07:15;23.60;99.90
32907;DHT22;19259;51.590;5.320;2022-08-04T00:10:02;23.80;99.90
32907;DHT22;19259;51.590;5.320;2022-08-04T00:12:32;23.90;99.90
32907;DHT22;19259;51.590;5.320;2022-08-04T00:15:02;23.90;99.90
32907;DHT22;19259;51.590;5.320;2022-08-04T00:17:43;23.80;99.90
32907;DHT22;19259;51.590;5.320;2022-08-04T00:20:09;23.80;99.90
32907;DHT22;19259;51.590;5.320;2022-08-04T00:22:39;23.80;99.90
32907;DHT22;19259;51.590;5.320;2022-08-04T00:25:08;23.90;99.90
32907;DHT22;19259;51.590;5.320;2022-08-04T00:27:36;23.90;99.90
32907;DHT22;19259;51.590;5.320;2022-08-04T00:30:06;24.00;99.90
32907;DHT22;19259;51.590;5.320;2022-08-04T00:32:35;23.90;99.90
32907;DHT22;19259;51.590;5.320;2022-08-04T00:35:03;23.80;99.90
32907;DHT22;19259;51.590;5.320;2022-08-04T00:37:32;24.00;99.90
32907;DHT22;19259;51.590;5.320;2022-08-04T00:40:00;24.00;99.90
32907;DHT22;19259;51.590;5.320;2022-08-04T00:45:32;24.00;99.90
32907;DHT22;19259;51.590;5.320;2022-08-04T00:48:03;24.00;99.90
32907;DHT22;19259;51.590;5.320;2022-08-04T00:59:03;24.00;99.90
32907;DHT22;19259;51.590;5.320;2022-08-04T01:04:22;24.00;99.90
32907;DHT22;19259;51.590;5.320;2022-08-04T01:09:40;24.00;99.90
32907;DHT22;19259;51.590;5.320;2022-08-04T01:15:06;24.10;99.90
32907;DHT22;19259;51.590;5.320;2022-08-04T01:17:41;24.00;99.90
32907;DHT22;19259;51.590;5.320;2022-08-04T01:20:10;24.10;99.90
32907;DHT22;19259;51.590;5.320;2022-08-04T01:22:49;24.20;99.90
32907;DHT22;19259;51.590;5.320;2022-08-04T01:28:14;24.20;99.90
32907;DHT22;19259;51.590;5.320;2022-08-04T01:30:37;24.20;99.90
32907;DHT22;19259;51.590;5.320;2022-08-04T01:33:12;24.10;99.90
32907;DHT22;19259;51.590;5.320;2022-08-04T01:35:52;24.10;99.90
32907;DHT22;19259;51.590;5.320;2022-08-04T01:38:28;24.00;99.90
32907;DHT22;19259;51.590;5.320;2022-08-04T01:41:09;24.00;99.90
32907;DHT22;19259;51.590;5.320;2022-08-04T01:43:35;23.80;99.90
32907;DHT22;19259;51.590;5.320;2022-08-04T01:46:03;23.60;99.90
32907;DHT22;19259;51.590;5.320;2022-08-04T01:48:32;23.50;99.90
32907;DHT22;19259;51.590;5.320;2022-08-04T01:51:03;23.40;99.90
32907;DHT22;19259;51.590;5.320;2022-08-04T01:53:39;23.40;99.90
32907;DHT22;19259;51.590;5.320;2022-08-04T01:56:08;23.40;99.90
32907;DHT22;19259;51.590;5.320;2022-08-04T01:58:37;23.40;99.90
32907;DHT22;19259;51.590;5.320;2022-08-04T02:01:08;23.60;99.90
32907;DHT22;19259;51.590;5.320;2022-08-04T02:03:39;23.60;99.90
32907;DHT22;19259;51.590;5.320;2022-08-04T02:06:30;23.70;99.90
32907;DHT22;19259;51.590;5.320;2022-08-04T02:11:32;23.50;99.90
32907;DHT22;19259;51.590;5.320;2022-08-04T02:16:48;23.30;99.90
32907;DHT22;19259;51.590;5.320;2022-08-04T02:19:23;23.20;99.90
32907;DHT22;19259;51.590;5.320;2022-08-04T02:21:54;22.90;99.90
32907;DHT22;19259;51.590;5.320;2022-08-04T02:24:21;22.90;99.90
32907;DHT22;19259;51.590;5.320;2022-08-04T02:26:52;23.20;99.90
32907;DHT22;19259;51.590;5.320;2022-08-04T02:29:35;23.00;99.90
32907;DHT22;19259;51.590;5.320;2022-08-04T02:32:04;22.90;99.90
32907;DHT22;19259;51.590;5.320;2022-08-04T02:34:59;22.70;99.90
32907;DHT22;19259;51.590;5.320;2022-08-04T02:37:21;22.60;99.90
32907;DHT22;19259;51.590;5.320;2022-08-04T02:39:52;22.60;99.90
32907;DHT22;19259;51.590;5.320;2022-08-04T02:42:21;22.60;99.90
32907;DHT22;19259;51.590;5.320;2022-08-04T02:44:50;22.40;99.90
32907;DHT22;19259;51.590;5.320;2022-08-04T02:47:20;22.20;99.90
32907;DHT22;19259;51.590;5.320;2022-08-04T02:49:52;22.10;99.90
32907;DHT22;19259;51.590;5.320;2022-08-04T02:52:20;22.10;99.90
32907;DHT22;19259;51.590;5.320;2022-08-04T02:54:54;22.10;99.90
32907;DHT22;19259;51.590;5.320;2022-08-04T02:57:25;22.10;99.90
32907;DHT22;19259;51.590;5.320;2022-08-04T03:00:07;22.10;99.90
32907;DHT22;19259;51.590;5.320;2022-08-04T03:02:49;22.00;99.90
32907;DHT22;19259;51.590;5.320;2022-08-04T03:05:19;22.10;99.90
32907;DHT22;19259;51.590;5.320;2022-08-04T03:08:06;22.00;99.90
32907;DHT22;19259;51.590;5.320;2022-08-04T03:13:27;21.90;99.90
32907;DHT22;19259;51.590;5.320;2022-08-04T03:16:24;21.80;99.90
32907;DHT22;19259;51.590;5.320;2022-08-04T03:21:38;22.00;99.90
32907;DHT22;19259;51.590;5.320;2022-08-04T03:30:06;21.80;99.90
32907;DHT22;19259;51.590;5.320;2022-08-04T03:32:57;21.70;99.90
32907;DHT22;19259;51.590;5.320;2022-08-04T03:41:35;21.50;99.90
32907;DHT22;19259;51.590;5.320;2022-08-04T03:47:31;21.50;99.90
32907;DHT22;19259;51.590;5.320;2022-08-04T04:01:05;21.40;99.90
32907;DHT22;19259;51.590;5.320;2022-08-04T04:03:59;21.50;99.90
32907;DHT22;19259;51.590;5.320;2022-08-04T04:06:37;21.50;99.90
32907;DHT22;19259;51.590;5.320;2022-08-04T04:28:55;21.70;99.90
32907;DHT22;19259;51.590;5.320;2022-08-04T04:31:58;21.60;99.90
32907;DHT22;19259;51.590;5.320;2022-08-04T04:34:27;21.70;99.90
32907;DHT22;19259;51.590;5.320;2022-08-04T04:39:31;21.70;99.90
32907;DHT22;19259;51.590;5.320;2022-08-04T04:44:54;21.80;99.90
32907;DHT22;19259;51.590;5.320;2022-08-04T04:47:44;21.90;99.90
32907;DHT22;19259;51.590;5.320;2022-08-04T04:50:19;22.10;99.90
32907;DHT22;19259;51.590;5.320;2022-08-04T04:52:48;22.10;99.90
32907;DHT22;19259;51.590;5.320;2022-08-04T04:57:51;22.20;99.90
32907;DHT22;19259;51.590;5.320;2022-08-04T05:00:20;22.20;99.90
32907;DHT22;19259;51.590;5.320;2022-08-04T05:11:40;22.60;99.90
32907;DHT22;19259;51.590;5.320;2022-08-04T05:14:09;22.70;99.90
32907;DHT22;19259;51.590;5.320;2022-08-04T05:22:26;22.70;99.90
32907;DHT22;19259;51.590;5.320;2022-08-04T05:25:11;22.80;99.90
32907;DHT22;19259;51.590;5.320;2022-08-04T05:27:40;22.90;99.90
32907;DHT22;19259;51.590;5.320;2022-08-04T05:30:08;22.90;99.90
32907;DHT22;19259;51.590;5.320;2022-08-04T05:32:49;23.00;99.90
32907;DHT22;19259;51.590;5.320;2022-08-04T05:35:24;23.10;99.90
32907;DHT22;19259;51.590;5.320;2022-08-04T05:37:52;22.90;99.90
32907;DHT22;19259;51.590;5.320;2022-08-04T05:40:21;22.80;99.90
32907;DHT22;19259;51.590;5.320;2022-08-04T05:42:51;22.80;99.90
32907;DHT22;19259;51.590;5.320;2022-08-04T05:45:21;22.70;99.90
32907;DHT22;19259;51.590;5.320;2022-08-04T05:47:50;22.60;99.90
32907;DHT22;19259;51.590;5.320;2022-08-04T05:50:20;22.60;99.90
32907;DHT22;19259;51.590;5.320;2022-08-04T05:52:49;22.50;99.90
32907;DHT22;19259;51.590;5.320;2022-08-04T05:55:17;22.70;99.90
32907;DHT22;19259;51.590;5.320;2022-08-04T05:57:46;22.70;99.90
32907;DHT22;19259;51.590;5.320;2022-08-04T06:00:15;22.70;99.90
32907;DHT22;19259;51.590;5.320;2022-08-04T06:02:49;22.90;99.90
32907;DHT22;19259;51.590;5.320;2022-08-04T06:05:18;22.90;99.90
32907;DHT22;19259;51.590;5.320;2022-08-04T06:07:47;22.70;99.90
32907;DHT22;19259;51.590;5.320;2022-08-04T06:10:15;22.60;99.90
32907;DHT22;19259;51.590;5.320;2022-08-04T06:12:57;22.80;99.90
32907;DHT22;19259;51.590;5.320;2022-08-04T06:15:26;22.70;99.90
32907;DHT22;19259;51.590;5.320;2022-08-04T06:18:00;22.70;99.90
32907;DHT22;19259;51.590;5.320;2022-08-04T06:20:29;22.80;99.90
32907;DHT22;19259;51.590;5.320;2022-08-04T06:23:00;22.60;99.90
32907;DHT22;19259;51.590;5.320;2022-08-04T06:25:33;22.70;99.90
32907;DHT22;19259;51.590;5.320;2022-08-04T06:28:04;22.80;99.90
32907;DHT22;19259;51.590;5.320;2022-08-04T06:30:32;22.90;99.90
32907;DHT22;19259;51.590;5.320;2022-08-04T06:33:03;23.20;99.90
32907;DHT22;19259;51.590;5.320;2022-08-04T06:35:33;23.20;99.90
32907;DHT22;19259;51.590;5.320;2022-08-04T06:38:02;23.20;99.90
32907;DHT22;19259;51.590;5.320;2022-08-04T06:40:30;23.40;99.90
32907;DHT22;19259;51.590;5.320;2022-08-04T06:43:04;23.50;99.90
32907;DHT22;19259;51.590;5.320;2022-08-04T06:45:34;23.90;99.90
32907;DHT22;19259;51.590;5.320;2022-08-04T06:48:04;24.00;99.90
32907;DHT22;19259;51.590;5.320;2022-08-04T06:50:34;24.10;99.90
32907;DHT22;19259;51.590;5.320;2022-08-04T06:53:03;24.30;99.90
32907;DHT22;19259;51.590;5.320;2022-08-04T06:55:31;24.50;99.90
32907;DHT22;19259;51.590;5.320;2022-08-04T06:58:01;24.70;99.90
32907;DHT22;19259;51.590;5.320;2022-08-04T07:00:29;24.70;99.90
32907;DHT22;19259;51.590;5.320;2022-08-04T07:02:58;24.40;99.90
32907;DHT22;19259;51.590;5.320;2022-08-04T07:05:27;24.30;99.90
32907;DHT22;19259;51.590;5.320;2022-08-04T07:07:55;24.40;99.90
32907;DHT22;19259;51.590;5.320;2022-08-04T07:10:24;24.50;99.90
32907;DHT22;19259;51.590;5.320;2022-08-04T07:12:54;24.60;99.90
32907;DHT22;19259;51.590;5.320;2022-08-04T07:15:23;24.80;99.90
32907;DHT22;19259;51.590;5.320;2022-08-04T07:17:53;24.90;99.90
32907;DHT22;19259;51.590;5.320;2022-08-04T07:20:23;25.30;99.90
32907;DHT22;19259;51.590;5.320;2022-08-04T07:22:51;25.20;99.90
32907;DHT22;19259;51.590;5.320;2022-08-04T07:25:20;25.30;99.90
32907;DHT22;19259;51.590;5.320;2022-08-04T07:27:49;25.30;99.90
32907;DHT22;19259;51.590;5.320;2022-08-04T07:30:17;25.20;99.90
32907;DHT22;19259;51.590;5.320;2022-08-04T07:32:45;25.30;99.90
32907;DHT22;19259;51.590;5.320;2022-08-04T07:35:13;25.40;99.90
32907;DHT22;19259;51.590;5.320;2022-08-04T07:37:41;25.40;99.90
32907;DHT22;19259;51.590;5.320;2022-08-04T07:40:09;25.60;99.90
32907;DHT22;19259;51.590;5.320;2022-08-04T07:42:37;25.70;99.90
32907;DHT22;19259;51.590;5.320;2022-08-04T07:45:06;25.80;99.90
32907;DHT22;19259;51.590;5.320;2022-08-04T07:47:34;25.50;99.90
32907;DHT22;19259;51.590;5.320;2022-08-04T07:50:02;25.40;99.90
32907;DHT22;19259;51.590;5.320;2022-08-04T07:52:30;25.60;99.90
32907;DHT22;19259;51.590;5.320;2022-08-04T07:55:02;25.60;99.90
32907;DHT22;19259;51.590;5.320;2022-08-04T07:57:31;25.80;99.90
32907;DHT22;19259;51.590;5.320;2022-08-04T07:59:58;25.90;99.90
32907;DHT22;19259;51.590;5.320;2022-08-04T08:02:26;25.90;99.90
32907;DHT22;19259;51.590;5.320;2022-08-04T08:04:55;25.60;99.90
32907;DHT22;19259;51.590;5.320;2022-08-04T08:07:23;25.80;99.90
32907;DHT22;19259;51.590;5.320;2022-08-04T08:09:50;26.00;99.90
32907;DHT22;19259;51.590;5.320;2022-08-04T08:12:18;26.00;99.90
32907;DHT22;19259;51.590;5.320;2022-08-04T08:14:46;25.80;99.90
32907;DHT22;19259;51.590;5.320;2022-08-04T08:17:14;25.90;99.90
32907;DHT22;19259;51.590;5.320;2022-08-04T08:19:41;26.20;99.90
32907;DHT22;19259;51.590;5.320;2022-08-04T08:22:12;26.30;99.90
32907;DHT22;19259;51.590;5.320;2022-08-04T08:24:39;26.50;99.90
32907;DHT22;19259;51.590;5.320;2022-08-04T08:27:07;26.80;99.90
32907;DHT22;19259;51.590;5.320;2022-08-04T08:29:35;26.80;99.90
32907;DHT22;19259;51.590;5.320;2022-08-04T08:32:06;26.90;99.90
32907;DHT22;19259;51.590;5.320;2022-08-04T08:34:35;26.80;99.90
32907;DHT22;19259;51.590;5.320;2022-08-04T08:37:19;26.90;99.90
32907;DHT22;19259;51.590;5.320;2022-08-04T08:48:50;27.30;99.90
32907;DHT22;19259;51.590;5.320;2022-08-04T08:57:23;27.10;99.90
32907;DHT22;19259;51.590;5.320;2022-08-04T09:00:10;27.10;99.90
32907;DHT22;19259;51.590;5.320;2022-08-04T09:08:49;27.10;99.90
32907;DHT22;19259;51.590;5.320;2022-08-04T09:11:19;27.30;99.90
32907;DHT22;19259;51.590;5.320;2022-08-04T09:14:04;27.20;99.90
32907;DHT22;19259;51.590;5.320;2022-08-04T09:16:48;27.30;99.90
32907;DHT22;19259;51.590;5.320;2022-08-04T09:19:43;27.50;99.90
32907;DHT22;19259;51.590;5.320;2022-08-04T09:22:33;27.60;99.90
32907;DHT22;19259;51.590;5.320;2022-08-04T09:25:06;27.60;99.90
32907;DHT22;19259;51.590;5.320;2022-08-04T09:27:42;27.50;99.90
32907;DHT22;19259;51.590;5.320;2022-08-04T09:30:09;27.50;99.90
32907;DHT22;19259;51.590;5.320;2022-08-04T09:32:56;27.40;99.90
32907;DHT22;19259;51.590;5.320;2022-08-04T09:35:51;27.40;99.90
32907;DHT22;19259;51.590;5.320;2022-08-04T09:40:55;27.70;99.90
32907;DHT22;19259;51.590;5.320;2022-08-04T09:46:17;27.70;99.90
32907;DHT22;19259;51.590;5.320;2022-08-04T10:00:01;27.00;99.90
32907;DHT22;19259;51.590;5.320;2022-08-04T10:02:37;26.90;99.90
32907;DHT22;19259;51.590;5.320;2022-08-04T10:05:02;26.70;99.90
32907;DHT22;19259;51.590;5.320;2022-08-04T10:10:33;26.30;99.90
32907;DHT22;19259;51.590;5.320;2022-08-04T10:13:13;25.90;99.90
32907;DHT22;19259;51.590;5.320;2022-08-04T10:21:57;25.20;99.90
32907;DHT22;19259;51.590;5.320;2022-08-04T10:24:32;25.20;99.90
32907;DHT22;19259;51.590;5.320;2022-08-04T10:27:08;25.10;99.90
32907;DHT22;19259;51.590;5.320;2022-08-04T10:29:46;25.00;99.90
32907;DHT22;19259;51.590;5.320;2022-08-04T10:35:17;24.90;99.90
32907;DHT22;19259;51.590;5.320;2022-08-04T10:38:07;24.80;99.90
32907;DHT22;19259;51.590;5.320;2022-08-04T10:40:45;24.60;99.90
32907;DHT22;19259;51.590;5.320;2022-08-04T10:46:16;24.30;99.90
32907;DHT22;19259;51.590;5.320;2022-08-04T10:54:25;23.60;99.90
32907;DHT22;19259;51.590;5.320;2022-08-04T10:56:56;23.50;99.90
32907;DHT22;19259;51.590;5.320;2022-08-04T10:59:37;23.80;99.90
32907;DHT22;19259;51.590;5.320;2022-08-04T11:02:52;24.20;99.90
32907;DHT22;19259;51.590;5.320;2022-08-04T11:04:50;24.30;99.90
32907;DHT22;19259;51.590;5.320;2022-08-04T11:07:15;24.30;99.90
32907;DHT22;19259;51.590;5.320;2022-08-04T11:09:44;24.50;99.90
32907;DHT22;19259;51.590;5.320;2022-08-04T11:12:23;24.10;99.90
32907;DHT22;19259;51.590;5.320;2022-08-04T11:15:05;23.80;99.90
32907;DHT22;19259;51.590;5.320;2022-08-04T11:17:42;23.60;99.90
32907;DHT22;19259;51.590;5.320;2022-08-04T11:22:51;23.50;99.90
32907;DHT22;19259;51.590;5.320;2022-08-04T11:25:24;23.50;99.90
32907;DHT22;19259;51.590;5.320;2022-08-04T11:28:03;23.50;99.90
32907;DHT22;19259;51.590;5.320;2022-08-04T11:30:42;23.60;99.90
32907;DHT22;19259;51.590;5.320;2022-08-04T11:33:35;23.60;99.90
32907;DHT22;19259;51.590;5.320;2022-08-04T11:36:11;23.70;99.90
32907;DHT22;19259;51.590;5.320;2022-08-04T11:41:41;24.10;99.90
32907;DHT22;19259;51.590;5.320;2022-08-04T11:44:11;24.30;99.90
32907;DHT22;19259;51.590;5.320;2022-08-04T11:46:46;24.80;99.90
32907;DHT22;19259;51.590;5.320;2022-08-04T11:51:49;25.20;99.90
32907;DHT22;19259;51.590;5.320;2022-08-04T11:54:18;25.00;99.90
32907;DHT22;19259;51.590;5.320;2022-08-04T11:56:47;25.00;99.90
32907;DHT22;19259;51.590;5.320;2022-08-04T11:59:14;25.30;99.90
32907;DHT22;19259;51.590;5.320;2022-08-04T12:04:44;25.70;99.90
32907;DHT22;19259;51.590;5.320;2022-08-04T12:12:45;26.30;99.90
32907;DHT22;19259;51.590;5.320;2022-08-04T12:15:31;25.80;99.90
32907;DHT22;19259;51.590;5.320;2022-08-04T12:18:12;25.50;99.90
32907;DHT22;19259;51.590;5.320;2022-08-04T12:20:41;25.30;99.90
32907;DHT22;19259;51.590;5.320;2022-08-04T12:23:20;25.40;99.90
32907;DHT22;19259;51.590;5.320;2022-08-04T12:25:48;25.60;99.90
32907;DHT22;19259;51.590;5.320;2022-08-04T12:28:25;26.00;99.90
32907;DHT22;19259;51.590;5.320;2022-08-04T12:30:57;26.30;99.90
32907;DHT22;19259;51.590;5.320;2022-08-04T12:36:04;26.40;99.90
32907;DHT22;19259;51.590;5.320;2022-08-04T12:38:31;26.30;99.90
32907;DHT22;19259;51.590;5.320;2022-08-04T12:41:00;26.30;99.90
32907;DHT22;19259;51.590;5.320;2022-08-04T12:43:39;26.20;99.90
32907;DHT22;19259;51.590;5.320;2022-08-04T12:46:31;26.20;99.90
32907;DHT22;19259;51.590;5.320;2022-08-04T12:48:43;26.50;99.90
32907;DHT22;19259;51.590;5.320;2022-08-04T12:51:10;26.30;99.90
32907;DHT22;19259;51.590;5.320;2022-08-04T12:53:43;26.00;99.90
32907;DHT22;19259;51.590;5.320;2022-08-04T12:56:13;26.10;99.90
32907;DHT22;19259;51.590;5.320;2022-08-04T12:58:44;26.30;99.90
32907;DHT22;19259;51.590;5.320;2022-08-04T13:01:21;26.20;99.90
32907;DHT22;19259;51.590;5.320;2022-08-04T13:03:57;26.50;99.90
32907;DHT22;19259;51.590;5.320;2022-08-04T13:06:34;26.80;99.90
32907;DHT22;19259;51.590;5.320;2022-08-04T13:09:09;27.00;99.90
32907;DHT22;19259;51.590;5.320;2022-08-04T13:11:46;27.10;99.90
32907;DHT22;19259;51.590;5.320;2022-08-04T13:14:11;27.00;99.90
32907;DHT22;19259;51.590;5.320;2022-08-04T13:16:39;27.10;99.90
32907;DHT22;19259;51.590;5.320;2022-08-04T13:19:08;27.10;99.90
32907;DHT22;19259;51.590;5.320;2022-08-04T13:21:41;27.20;99.90
32907;DHT22;19259;51.590;5.320;2022-08-04T13:24:14;27.20;99.90
32907;DHT22;19259;51.590;5.320;2022-08-04T13:27:01;26.70;99.90
32907;DHT22;19259;51.590;5.320;2022-08-04T13:32:02;26.70;99.90
32907;DHT22;19259;51.590;5.320;2022-08-04T13:34:32;26.80;99.90
32907;DHT22;19259;51.590;5.320;2022-08-04T13:37:03;26.80;99.90
32907;DHT22;19259;51.590;5.320;2022-08-04T13:39:34;26.80;99.90
32907;DHT22;19259;51.590;5.320;2022-08-04T13:42:07;27.00;99.90
32907;DHT22;19259;51.590;5.320;2022-08-04T13:44:34;27.10;99.90
32907;DHT22;19259;51.590;5.320;2022-08-04T13:47:09;26.90;99.90
32907;DHT22;19259;51.590;5.320;2022-08-04T13:49:36;26.80;99.90
32907;DHT22;19259;51.590;5.320;2022-08-04T13:52:06;26.80;99.90
32907;DHT22;19259;51.590;5.320;2022-08-04T13:54:45;26.80;99.90
32907;DHT22;19259;51.590;5.320;2022-08-04T13:57:34;27.00;99.90
32907;DHT22;19259;51.590;5.320;2022-08-04T14:00:07;27.20;99.90
32907;DHT22;19259;51.590;5.320;2022-08-04T14:02:43;27.30;99.90
32907;DHT22;19259;51.590;5.320;2022-08-04T14:05:28;27.40;99.90
32907;DHT22;19259;51.590;5.320;2022-08-04T14:08:08;27.40;99.90
32907;DHT22;19259;51.590;5.320;2022-08-04T14:10:36;27.60;99.90
32907;DHT22;19259;51.590;5.320;2022-08-04T14:13:06;27.80;99.90
32907;DHT22;19259;51.590;5.320;2022-08-04T14:15:37;27.50;99.90
32907;DHT22;19259;51.590;5.320;2022-08-04T14:18:23;27.50;99.90
32907;DHT22;19259;51.590;5.320;2022-08-04T14:21:11;27.30;99.90
32907;DHT22;19259;51.590;5.320;2022-08-04T14:23:48;27.00;99.90
32907;DHT22;19259;51.590;5.320;2022-08-04T14:26:30;26.70;99.90
32907;DHT22;19259;51.590;5.320;2022-08-04T14:29:12;26.70;99.90
32907;DHT22;19259;51.590;5.320;2022-08-04T14:31:40;26.90;99.90
32907;DHT22;19259;51.590;5.320;2022-08-04T14:34:08;26.90;99.90
32907;DHT22;19259;51.590;5.320;2022-08-04T14:36:42;26.90;99.90
32907;DHT22;19259;51.590;5.320;2022-08-04T14:39:11;27.20;99.90
32907;DHT22;19259;51.590;5.320;2022-08-04T14:41:47;27.30;99.90
32907;DHT22;19259;51.590;5.320;2022-08-04T14:44:16;27.50;99.90
32907;DHT22;19259;51.590;5.320;2022-08-04T14:46:51;27.50;99.90
32907;DHT22;19259;51.590;5.320;2022-08-04T14:49:20;27.40;99.90
32907;DHT22;19259;51.590;5.320;2022-08-04T14:51:58;27.20;99.90
32907;DHT22;19259;51.590;5.320;2022-08-04T14:54:27;27.20;99.90
32907;DHT22;19259;51.590;5.320;2022-08-04T14:56:59;27.00;99.90
32907;DHT22;19259;51.590;5.320;2022-08-04T14:59:26;27.00;99.90
32907;DHT22;19259;51.590;5.320;2022-08-04T15:01:54;27.20;99.90
32907;DHT22;19259;51.590;5.320;2022-08-04T15:04:24;27.20;99.90
32907;DHT22;19259;51.590;5.320;2022-08-04T15:06:52;27.00;99.90
32907;DHT22;19259;51.590;5.320;2022-08-04T15:09:20;27.10;99.90
32907;DHT22;19259;51.590;5.320;2022-08-04T15:11:48;27.20;99.90
32907;DHT22;19259;51.590;5.320;2022-08-04T15:14:19;27.40;99.90
32907;DHT22;19259;51.590;5.320;2022-08-04T15:16:45;27.50;99.90
32907;DHT22;19259;51.590;5.320;2022-08-04T15:19:13;27.50;99.90
32907;DHT22;19259;51.590;5.320;2022-08-04T15:21:41;27.50;99.90
32907;DHT22;19259;51.590;5.320;2022-08-04T15:24:09;27.40;99.90
32907;DHT22;19259;51.590;5.320;2022-08-04T15:26:48;27.30;99.90
32907;DHT22;19259;51.590;5.320;2022-08-04T15:29:29;27.00;99.90
32907;DHT22;19259;51.590;5.320;2022-08-04T15:31:56;26.90;99.90
32907;DHT22;19259;51.590;5.320;2022-08-04T15:34:26;27.10;99.90
32907;DHT22;19259;51.590;5.320;2022-08-04T15:36:55;27.10;99.90
32907;DHT22;19259;51.590;5.320;2022-08-04T15:42:08;27.50;99.90
32907;DHT22;19259;51.590;5.320;2022-08-04T15:47:25;27.60;99.90
32907;DHT22;19259;51.590;5.320;2022-08-04T15:50:10;27.50;99.90
32907;DHT22;19259;51.590;5.320;2022-08-04T15:53:03;27.30;99.90
32907;DHT22;19259;51.590;5.320;2022-08-04T15:55:41;27.40;99.90
32907;DHT22;19259;51.590;5.320;2022-08-04T15:58:13;27.60;99.90
32907;DHT22;19259;51.590;5.320;2022-08-04T16:08:56;27.70;99.90
32907;DHT22;19259;51.590;5.320;2022-08-04T16:19:18;27.60;99.90
32907;DHT22;19259;51.590;5.320;2022-08-04T16:21:48;27.60;99.90
32907;DHT22;19259;51.590;5.320;2022-08-04T16:24:21;27.60;99.90
32907;DHT22;19259;51.590;5.320;2022-08-04T16:27:00;27.50;99.90
32907;DHT22;19259;51.590;5.320;2022-08-04T16:29:34;27.50;99.90
32907;DHT22;19259;51.590;5.320;2022-08-04T16:32:07;27.50;99.90
32907;DHT22;19259;51.590;5.320;2022-08-04T16:35:01;27.50;99.90
32907;DHT22;19259;51.590;5.320;2022-08-04T16:37:36;27.20;99.90
32907;DHT22;19259;51.590;5.320;2022-08-04T16:40:24;27.20;99.90
32907;DHT22;19259;51.590;5.320;2022-08-04T16:42:57;26.70;99.90
32907;DHT22;19259;51.590;5.320;2022-08-04T16:45:39;26.50;99.90
32907;DHT22;19259;51.590;5.320;2022-08-04T16:48:08;26.50;99.90
32907;DHT22;19259;51.590;5.320;2022-08-04T16:50:48;26.40;99.90
32907;DHT22;19259;51.590;5.320;2022-08-04T16:53:13;26.50;99.90
32907;DHT22;19259;51.590;5.320;2022-08-04T16:55:45;26.50;99.90
32907;DHT22;19259;51.590;5.320;2022-08-04T16:58:14;26.50;99.90
32907;DHT22;19259;51.590;5.320;2022-08-04T17:00:42;26.60;99.90
32907;DHT22;19259;51.590;5.320;2022-08-04T17:03:11;26.30;99.90
32907;DHT22;19259;51.590;5.320;2022-08-04T17:05:41;26.30;99.90
32907;DHT22;19259;51.590;5.320;2022-08-04T17:08:11;26.20;99.90
32907;DHT22;19259;51.590;5.320;2022-08-04T17:10:42;26.10;99.90
32907;DHT22;19259;51.590;5.320;2022-08-04T17:13:26;26.00;99.90
32907;DHT22;19259;51.590;5.320;2022-08-04T17:16:07;26.00;99.90
32907;DHT22;19259;51.590;5.320;2022-08-04T17:18:32;25.70;99.90
32907;DHT22;19259;51.590;5.320;2022-08-04T17:21:07;25.70;99.90
32907;DHT22;19259;51.590;5.320;2022-08-04T17:26:16;25.70;99.90
32907;DHT22;19259;51.590;5.320;2022-08-04T17:28:46;25.60;99.90
32907;DHT22;19259;51.590;5.320;2022-08-04T17:31:16;25.50;99.90
32907;DHT22;19259;51.590;5.320;2022-08-04T17:33:46;25.50;99.90
32907;DHT22;19259;51.590;5.320;2022-08-04T17:36:15;25.60;99.90
32907;DHT22;19259;51.590;5.320;2022-08-04T17:38:51;25.50;99.90
32907;DHT22;19259;51.590;5.320;2022-08-04T17:41:23;25.60;99.90
32907;DHT22;19259;51.590;5.320;2022-08-04T17:43:57;25.60;99.90
32907;DHT22;19259;51.590;5.320;2022-08-04T17:46:38;25.60;99.90
32907;DHT22;19259;51.590;5.320;2022-08-04T17:56:57;25.20;99.90
32907;DHT22;19259;51.590;5.320;2022-08-04T17:59:45;25.20;99.90
32907;DHT22;19259;51.590;5.320;2022-08-04T18:02:11;24.90;99.90
32907;DHT22;19259;51.590;5.320;2022-08-04T18:07:22;24.60;99.90
32907;DHT22;19259;51.590;5.320;2022-08-04T18:09:53;24.30;99.90
32907;DHT22;19259;51.590;5.320;2022-08-04T18:12:32;24.30;99.90
32907;DHT22;19259;51.590;5.320;2022-08-04T18:15:07;24.20;99.90
32907;DHT22;19259;51.590;5.320;2022-08-04T18:17:41;24.20;99.90
32907;DHT22;19259;51.590;5.320;2022-08-04T18:20:11;24.00;99.90
32907;DHT22;19259;51.590;5.320;2022-08-04T18:22:47;23.90;99.90
32907;DHT22;19259;51.590;5.320;2022-08-04T18:25:17;23.90;99.90
32907;DHT22;19259;51.590;5.320;2022-08-04T18:27:56;24.00;99.90
32907;DHT22;19259;51.590;5.320;2022-08-04T18:30:20;24.00;99.90
32907;DHT22;19259;51.590;5.320;2022-08-04T18:32:57;24.10;99.90
32907;DHT22;19259;51.590;5.320;2022-08-04T18:35:24;24.00;99.90
32907;DHT22;19259;51.590;5.320;2022-08-04T18:37:54;24.00;99.90
32907;DHT22;19259;51.590;5.320;2022-08-04T18:40:22;24.10;99.90
32907;DHT22;19259;51.590;5.320;2022-08-04T18:42:54;24.00;99.90
32907;DHT22;19259;51.590;5.320;2022-08-04T18:45:19;24.00;99.90
32907;DHT22;19259;51.590;5.320;2022-08-04T18:47:46;24.00;99.90
32907;DHT22;19259;51.590;5.320;2022-08-04T18:50:16;24.00;99.90
32907;DHT22;19259;51.590;5.320;2022-08-04T18:52:43;23.80;99.90
32907;DHT22;19259;51.590;5.320;2022-08-04T18:55:12;23.70;99.90
32907;DHT22;19259;51.590;5.320;2022-08-04T18:57:42;23.80;99.90
32907;DHT22;19259;51.590;5.320;2022-08-04T19:00:10;23.80;99.90
32907;DHT22;19259;51.590;5.320;2022-08-04T19:02:43;23.80;99.90
32907;DHT22;19259;51.590;5.320;2022-08-04T19:05:08;23.80;99.90
32907;DHT22;19259;51.590;5.320;2022-08-04T19:07:40;23.80;99.90
32907;DHT22;19259;51.590;5.320;2022-08-04T19:10:08;23.60;99.90
32907;DHT22;19259;51.590;5.320;2022-08-04T19:12:36;23.50;99.90
32907;DHT22;19259;51.590;5.320;2022-08-04T19:15:07;23.50;99.90
32907;DHT22;19259;51.590;5.320;2022-08-04T19:17:35;23.40;99.90
32907;DHT22;19259;51.590;5.320;2022-08-04T19:20:03;23.40;99.90
32907;DHT22;19259;51.590;5.320;2022-08-04T19:22:31;23.20;99.90
32907;DHT22;19259;51.590;5.320;2022-08-04T19:25:02;23.40;99.90
32907;DHT22;19259;51.590;5.320;2022-08-04T19:27:29;23.40;99.90
32907;DHT22;19259;51.590;5.320;2022-08-04T19:29:57;23.30;99.90
32907;DHT22;19259;51.590;5.320;2022-08-04T19:32:26;23.30;99.90
32907;DHT22;19259;51.590;5.320;2022-08-04T19:34:57;23.30;99.90
32907;DHT22;19259;51.590;5.320;2022-08-04T19:37:24;23.20;99.90
32907;DHT22;19259;51.590;5.320;2022-08-04T19:39:52;23.10;99.90
32907;DHT22;19259;51.590;5.320;2022-08-04T19:42:19;23.00;99.90